Worthington, MN

9:38 AM CDT on September 05, 2015 (GMT -0500)
Worthignton | | Change Station
CLOSE
Current Station
Personal Weather Station
Location: Worthington, MN
Elevation: 1587 ft
Nearby Weather Stations

Elev 1587 ft 43.56 °N, 95.57 °W | Updated 8 seconds ago

Overcast
Overcast
75.0 °F
Feels Like 76 °F
N
10.5
Wind Variable Wind from SSE
Gusts 16.0 mph

Today
High -- | Low -- °F
--% Chance of Precip.
Yesterday
High -- | Low -- °F
Precip. -- in
6:50 AM 7:51 PM
Waning Gibbous, 48% visible
Pressure 29.91 in
Visibility 10.0 miles
Clouds Overcast 10000 ft
Heat Index 76 °F
Dew Point 68 °F
Humidity 80%
Rainfall 0.00 in
Snow Depth Not available.
UV 1 out of 12
Pollen 11.20 out of 12
Air Quality Not available.
Flu Activity Not available.
METAR KOTG 051435Z AUTO 17013G18KT 10SM OVC100 24/19 A2991 RMK AO1
Pressure 29.91 in
Visibility 10.0 miles
Clouds Overcast 10000 ft
Heat Index 76 °F
Dew Point 68 °F
Humidity 80%
Rainfall 0.00 in
Snow Depth Not available.
UV 1 out of 12
Pollen 11.20 out of 12
Air Quality Not available.
Flu Activity Not available.
METAR KOTG 051435Z AUTO 17013G18KT 10SM OVC100 24/19 A2991 RMK AO1

10-Day Weather Forecast

×

Almanac

Astronomy

Sep. 05, 2015 Rise Set
Actual Time
Civil Twilight
Nautical Twilight
Astronomical Twilight
Moon
Length of Visible Light
Length of Day
Tomorrow will be .
, % of the Moon is Illuminated

Today's Extremes

State Highs State Lows

Community

WunderPhotos

Upload Photos

1,852,475 photos uploaded!

WunderBlogs® & News

Nearby

Air Quality

  Air Quality AQ Index Pollutant
Not available.

Snow Depth

Station Depth Elevation

Earthquake Activity

City Distance Mag. Time & Date
Minimum magnitude displayed is 2.5.

Coastal Water Temperatures

Place Temperature

Stations

Nearby Weather Stations

Station Location Temp. Windchill Dew Point Humidity Wind Precip. Elev Updated Type